Terminal Aerodrome Forecast
Issued by NWS Cleveland, OH

Home | Current Version | Previous Version | Graphics & Text | Print | Product List | Glossary On
Versions: 1 2 3 4 5 6 7 8 9 10 11 12 13 14 15 16 17 18 19 20 21 22 23 24
000
FTUS41 KCLE 270000 AAA
TAFCAK
TAF AMD
KCAK 270016Z 2700/2724 20005KT P6SM VCSH BKN045
      TEMPO 2700/2703 VRB12G30KT 1SM -TSRA BR OVC025CB
     FM270500 26006KT P6SM BKN120 OVC250
     FM270900 32006KT P6SM SCT025 BKN250
      TEMPO 2709/2713 5SM BR BKN025
     FM271300 34006KT P6SM BKN025
     FM271600 35008KT P6SM SCT035 BKN250=

USA.gov is the U.S. government's official web portal to all federal, state and local government web resources and services.